sensor_id;sensor_type;location;lat;lon;timestamp;P1;durP1;ratioP1;P2;durP2;ratioP2
13731;SDS011;6937;56.096;12.664;2023-06-10T00:01:12;1.60;;;0.93;;
13731;SDS011;6937;56.096;12.664;2023-06-10T00:03:37;3.38;;;0.93;;
13731;SDS011;6937;56.096;12.664;2023-06-10T00:06:03;2.38;;;1.10;;
13731;SDS011;6937;56.096;12.664;2023-06-10T00:08:28;1.40;;;0.82;;
13731;SDS011;6937;56.096;12.664;2023-06-10T00:10:56;3.45;;;0.90;;
13731;SDS011;6937;56.096;12.664;2023-06-10T00:13:21;1.50;;;1.10;;
13731;SDS011;6937;56.096;12.664;2023-06-10T00:15:47;2.63;;;1.30;;
13731;SDS011;6937;56.096;12.664;2023-06-10T00:18:12;1.90;;;0.90;;
13731;SDS011;6937;56.096;12.664;2023-06-10T00:20:38;0.90;;;0.90;;
13731;SDS011;6937;56.096;12.664;2023-06-10T00:23:04;1.75;;;1.10;;
13731;SDS011;6937;56.096;12.664;2023-06-10T00:25:31;1.30;;;1.15;;
13731;SDS011;6937;56.096;12.664;2023-06-10T00:27:57;1.55;;;1.13;;
13731;SDS011;6937;56.096;12.664;2023-06-10T00:30:22;1.10;;;1.00;;
13731;SDS011;6937;56.096;12.664;2023-06-10T00:32:48;1.60;;;1.00;;
13731;SDS011;6937;56.096;12.664;2023-06-10T00:35:13;1.25;;;1.00;;
13731;SDS011;6937;56.096;12.664;2023-06-10T00:37:38;2.00;;;1.15;;
13731;SDS011;6937;56.096;12.664;2023-06-10T00:40:04;1.02;;;0.90;;
13731;SDS011;6937;56.096;12.664;2023-06-10T00:42:30;1.23;;;0.70;;
13731;SDS011;6937;56.096;12.664;2023-06-10T00:44:56;1.48;;;0.80;;
13731;SDS011;6937;56.096;12.664;2023-06-10T00:47:21;0.77;;;0.77;;
13731;SDS011;6937;56.096;12.664;2023-06-10T00:49:47;2.55;;;1.00;;
13731;SDS011;6937;56.096;12.664;2023-06-10T00:52:14;1.15;;;0.80;;
13731;SDS011;6937;56.096;12.664;2023-06-10T00:54:41;0.90;;;0.70;;
13731;SDS011;6937;56.096;12.664;2023-06-10T00:57:07;1.25;;;0.90;;
13731;SDS011;6937;56.096;12.664;2023-06-10T00:59:32;1.50;;;0.90;;
13731;SDS011;6937;56.096;12.664;2023-06-10T01:01:59;2.92;;;0.80;;
13731;SDS011;6937;56.096;12.664;2023-06-10T01:04:26;1.15;;;0.70;;
13731;SDS011;6937;56.096;12.664;2023-06-10T01:06:57;1.60;;;0.80;;
13731;SDS011;6937;56.096;12.664;2023-06-10T01:12:39;2.35;;;0.80;;
13731;SDS011;6937;56.096;12.664;2023-06-10T01:15:14;1.40;;;0.70;;
13731;SDS011;6937;56.096;12.664;2023-06-10T01:17:57;2.17;;;0.68;;
13731;SDS011;6937;56.096;12.664;2023-06-10T01:20:28;1.10;;;0.70;;
13731;SDS011;6937;56.096;12.664;2023-06-10T01:22:54;0.63;;;0.63;;
13731;SDS011;6937;56.096;12.664;2023-06-10T01:25:21;1.35;;;0.60;;
13731;SDS011;6937;56.096;12.664;2023-06-10T01:30:34;1.48;;;0.52;;
13731;SDS011;6937;56.096;12.664;2023-06-10T01:33:07;1.80;;;0.55;;
13731;SDS011;6937;56.096;12.664;2023-06-10T01:35:34;0.82;;;0.52;;
13731;SDS011;6937;56.096;12.664;2023-06-10T01:38:02;5.55;;;0.80;;
13731;SDS011;6937;56.096;12.664;2023-06-10T01:40:29;1.20;;;0.70;;
13731;SDS011;6937;56.096;12.664;2023-06-10T01:42:55;0.55;;;0.52;;
13731;SDS011;6937;56.096;12.664;2023-06-10T01:45:21;0.85;;;0.50;;
13731;SDS011;6937;56.096;12.664;2023-06-10T01:47:46;1.90;;;0.85;;
13731;SDS011;6937;56.096;12.664;2023-06-10T01:50:12;3.67;;;0.65;;
13731;SDS011;6937;56.096;12.664;2023-06-10T01:52:37;2.45;;;0.40;;
13731;SDS011;6937;56.096;12.664;2023-06-10T01:55:03;1.67;;;0.50;;
13731;SDS011;6937;56.096;12.664;2023-06-10T01:57:29;0.50;;;0.50;;
13731;SDS011;6937;56.096;12.664;2023-06-10T01:59:54;1.38;;;0.70;;
13731;SDS011;6937;56.096;12.664;2023-06-10T02:02:20;0.93;;;0.52;;
13731;SDS011;6937;56.096;12.664;2023-06-10T02:04:47;1.95;;;0.50;;
13731;SDS011;6937;56.096;12.664;2023-06-10T02:07:12;0.57;;;0.32;;
13731;SDS011;6937;56.096;12.664;2023-06-10T02:09:37;1.27;;;0.60;;
13731;SDS011;6937;56.096;12.664;2023-06-10T02:12:03;2.85;;;0.57;;
13731;SDS011;6937;56.096;12.664;2023-06-10T02:14:29;1.45;;;0.60;;
13731;SDS011;6937;56.096;12.664;2023-06-10T02:16:56;0.80;;;0.55;;
13731;SDS011;6937;56.096;12.664;2023-06-10T02:19:22;0.40;;;0.40;;
13731;SDS011;6937;56.096;12.664;2023-06-10T02:21:48;1.48;;;0.60;;
13731;SDS011;6937;56.096;12.664;2023-06-10T02:24:14;1.92;;;0.50;;
13731;SDS011;6937;56.096;12.664;2023-06-10T02:26:39;0.50;;;0.40;;
13731;SDS011;6937;56.096;12.664;2023-06-10T02:29:05;0.65;;;0.43;;
13731;SDS011;6937;56.096;12.664;2023-06-10T02:31:31;0.70;;;0.50;;
13731;SDS011;6937;56.096;12.664;2023-06-10T02:33:56;1.27;;;0.45;;
13731;SDS011;6937;56.096;12.664;2023-06-10T02:36:22;0.45;;;0.30;;
13731;SDS011;6937;56.096;12.664;2023-06-10T02:38:49;0.55;;;0.40;;
13731;SDS011;6937;56.096;12.664;2023-06-10T02:41:14;0.35;;;0.30;;
13731;SDS011;6937;56.096;12.664;2023-06-10T02:43:40;1.45;;;0.30;;
13731;SDS011;6937;56.096;12.664;2023-06-10T02:46:05;0.40;;;0.40;;
13731;SDS011;6937;56.096;12.664;2023-06-10T02:48:30;0.95;;;0.57;;
13731;SDS011;6937;56.096;12.664;2023-06-10T02:50:56;1.20;;;0.38;;
13731;SDS011;6937;56.096;12.664;2023-06-10T02:53:21;1.33;;;0.38;;
13731;SDS011;6937;56.096;12.664;2023-06-10T02:55:46;0.45;;;0.40;;
13731;SDS011;6937;56.096;12.664;2023-06-10T02:58:12;0.63;;;0.50;;
13731;SDS011;6937;56.096;12.664;2023-06-10T03:00:37;0.85;;;0.40;;
13731;SDS011;6937;56.096;12.664;2023-06-10T03:03:04;0.75;;;0.40;;
13731;SDS011;6937;56.096;12.664;2023-06-10T03:05:30;0.95;;;0.40;;
13731;SDS011;6937;56.096;12.664;2023-06-10T03:07:55;1.30;;;0.47;;
13731;SDS011;6937;56.096;12.664;2023-06-10T03:10:20;0.52;;;0.40;;
13731;SDS011;6937;56.096;12.664;2023-06-10T03:12:46;0.60;;;0.38;;
13731;SDS011;6937;56.096;12.664;2023-06-10T03:15:11;1.33;;;0.30;;
13731;SDS011;6937;56.096;12.664;2023-06-10T03:17:37;1.00;;;0.40;;
13731;SDS011;6937;56.096;12.664;2023-06-10T03:20:03;0.38;;;0.30;;
13731;SDS011;6937;56.096;12.664;2023-06-10T03:22:33;1.15;;;0.35;;
13731;SDS011;6937;56.096;12.664;2023-06-10T03:24:58;0.68;;;0.40;;
13731;SDS011;6937;56.096;12.664;2023-06-10T03:27:24;0.38;;;0.30;;
13731;SDS011;6937;56.096;12.664;2023-06-10T03:29:50;0.40;;;0.30;;
13731;SDS011;6937;56.096;12.664;2023-06-10T03:32:15;0.60;;;0.50;;
13731;SDS011;6937;56.096;12.664;2023-06-10T03:34:40;0.47;;;0.30;;
13731;SDS011;6937;56.096;12.664;2023-06-10T03:37:06;1.17;;;0.40;;
13731;SDS011;6937;56.096;12.664;2023-06-10T03:39:32;0.60;;;0.38;;
13731;SDS011;6937;56.096;12.664;2023-06-10T03:41:58;1.58;;;0.30;;
13731;SDS011;6937;56.096;12.664;2023-06-10T03:44:24;1.02;;;0.40;;
13731;SDS011;6937;56.096;12.664;2023-06-10T03:46:50;0.32;;;0.30;;
13731;SDS011;6937;56.096;12.664;2023-06-10T03:49:16;1.65;;;0.30;;
13731;SDS011;6937;56.096;12.664;2023-06-10T03:51:42;0.47;;;0.35;;
13731;SDS011;6937;56.096;12.664;2023-06-10T03:54:08;0.30;;;0.30;;
13731;SDS011;6937;56.096;12.664;2023-06-10T03:56:33;1.60;;;0.40;;
13731;SDS011;6937;56.096;12.664;2023-06-10T03:58:58;2.67;;;0.50;;
13731;SDS011;6937;56.096;12.664;2023-06-10T04:01:24;0.50;;;0.30;;
13731;SDS011;6937;56.096;12.664;2023-06-10T04:03:49;0.47;;;0.30;;
13731;SDS011;6937;56.096;12.664;2023-06-10T04:06:16;2.05;;;0.40;;
13731;SDS011;6937;56.096;12.664;2023-06-10T04:08:41;1.67;;;0.35;;
13731;SDS011;6937;56.096;12.664;2023-06-10T04:11:07;3.03;;;0.57;;
13731;SDS011;6937;56.096;12.664;2023-06-10T04:13:33;0.70;;;0.47;;
13731;SDS011;6937;56.096;12.664;2023-06-10T04:15:59;1.20;;;0.40;;
13731;SDS011;6937;56.096;12.664;2023-06-10T04:18:24;0.90;;;0.40;;
13731;SDS011;6937;56.096;12.664;2023-06-10T04:20:50;0.85;;;0.40;;
13731;SDS011;6937;56.096;12.664;2023-06-10T04:23:16;1.92;;;0.40;;
13731;SDS011;6937;56.096;12.664;2023-06-10T04:25:42;1.23;;;0.50;;
13731;SDS011;6937;56.096;12.664;2023-06-10T04:28:07;0.85;;;0.35;;
13731;SDS011;6937;56.096;12.664;2023-06-10T04:30:33;0.50;;;0.50;;
13731;SDS011;6937;56.096;12.664;2023-06-10T04:32:58;1.67;;;0.40;;
13731;SDS011;6937;56.096;12.664;2023-06-10T04:35:23;0.75;;;0.40;;
13731;SDS011;6937;56.096;12.664;2023-06-10T04:37:51;0.73;;;0.50;;
13731;SDS011;6937;56.096;12.664;2023-06-10T04:40:17;0.63;;;0.40;;
13731;SDS011;6937;56.096;12.664;2023-06-10T04:42:42;1.00;;;0.40;;
13731;SDS011;6937;56.096;12.664;2023-06-10T04:45:08;1.33;;;0.40;;
13731;SDS011;6937;56.096;12.664;2023-06-10T04:47:34;1.38;;;0.52;;
13731;SDS011;6937;56.096;12.664;2023-06-10T04:49:59;2.13;;;0.55;;
13731;SDS011;6937;56.096;12.664;2023-06-10T04:52:25;1.75;;;0.32;;
13731;SDS011;6937;56.096;12.664;2023-06-10T04:54:51;1.95;;;0.50;;
13731;SDS011;6937;56.096;12.664;2023-06-10T04:57:17;0.47;;;0.40;;
13731;SDS011;6937;56.096;12.664;2023-06-10T04:59:42;1.02;;;0.73;;
13731;SDS011;6937;56.096;12.664;2023-06-10T05:02:08;0.60;;;0.40;;
13731;SDS011;6937;56.096;12.664;2023-06-10T05:04:33;1.85;;;0.50;;
13731;SDS011;6937;56.096;12.664;2023-06-10T05:06:58;0.47;;;0.40;;
13731;SDS011;6937;56.096;12.664;2023-06-10T05:09:24;1.17;;;0.57;;
13731;SDS011;6937;56.096;12.664;2023-06-10T05:12:04;1.95;;;0.50;;
13731;SDS011;6937;56.096;12.664;2023-06-10T05:14:30;2.58;;;0.57;;
13731;SDS011;6937;56.096;12.664;2023-06-10T05:16:56;1.48;;;0.77;;
13731;SDS011;6937;56.096;12.664;2023-06-10T05:19:22;1.55;;;0.57;;
13731;SDS011;6937;56.096;12.664;2023-06-10T05:21:47;2.17;;;0.60;;
13731;SDS011;6937;56.096;12.664;2023-06-10T05:24:13;0.85;;;0.47;;
13731;SDS011;6937;56.096;12.664;2023-06-10T05:26:38;2.92;;;0.60;;
13731;SDS011;6937;56.096;12.664;2023-06-10T05:29:04;2.35;;;0.68;;
13731;SDS011;6937;56.096;12.664;2023-06-10T05:31:30;0.95;;;0.80;;
13731;SDS011;6937;56.096;12.664;2023-06-10T05:33:56;1.48;;;0.50;;
13731;SDS011;6937;56.096;12.664;2023-06-10T05:36:21;1.52;;;0.60;;
13731;SDS011;6937;56.096;12.664;2023-06-10T05:38:47;2.20;;;0.68;;
13731;SDS011;6937;56.096;12.664;2023-06-10T05:41:12;1.77;;;0.60;;
13731;SDS011;6937;56.096;12.664;2023-06-10T05:43:37;0.95;;;0.50;;
13731;SDS011;6937;56.096;12.664;2023-06-10T05:46:03;1.90;;;0.70;;
13731;SDS011;6937;56.096;12.664;2023-06-10T05:48:28;1.73;;;0.77;;
13731;SDS011;6937;56.096;12.664;2023-06-10T05:50:53;1.77;;;0.70;;
13731;SDS011;6937;56.096;12.664;2023-06-10T05:53:19;3.55;;;0.80;;
13731;SDS011;6937;56.096;12.664;2023-06-10T05:55:44;1.58;;;0.60;;
13731;SDS011;6937;56.096;12.664;2023-06-10T05:58:11;2.97;;;0.82;;
13731;SDS011;6937;56.096;12.664;2023-06-10T06:00:40;2.05;;;0.90;;
13731;SDS011;6937;56.096;12.664;2023-06-10T06:03:06;1.85;;;0.73;;
13731;SDS011;6937;56.096;12.664;2023-06-10T06:05:33;1.15;;;0.65;;
13731;SDS011;6937;56.096;12.664;2023-06-10T06:08:06;2.55;;;0.57;;
13731;SDS011;6937;56.096;12.664;2023-06-10T06:10:34;3.10;;;0.60;;
13731;SDS011;6937;56.096;12.664;2023-06-10T06:13:00;2.78;;;0.57;;
13731;SDS011;6937;56.096;12.664;2023-06-10T06:15:25;1.35;;;0.60;;
13731;SDS011;6937;56.096;12.664;2023-06-10T06:17:51;2.95;;;0.80;;
13731;SDS011;6937;56.096;12.664;2023-06-10T06:20:20;2.35;;;0.88;;
13731;SDS011;6937;56.096;12.664;2023-06-10T06:22:46;1.65;;;0.70;;
13731;SDS011;6937;56.096;12.664;2023-06-10T06:25:11;2.13;;;0.75;;
13731;SDS011;6937;56.096;12.664;2023-06-10T06:27:37;1.77;;;0.70;;
13731;SDS011;6937;56.096;12.664;2023-06-10T06:30:02;3.05;;;1.02;;
13731;SDS011;6937;56.096;12.664;2023-06-10T06:32:28;2.33;;;0.70;;
13731;SDS011;6937;56.096;12.664;2023-06-10T06:34:54;1.00;;;0.50;;
13731;SDS011;6937;56.096;12.664;2023-06-10T06:37:23;2.28;;;0.55;;
13731;SDS011;6937;56.096;12.664;2023-06-10T06:39:52;1.95;;;0.70;;
13731;SDS011;6937;56.096;12.664;2023-06-10T06:42:18;5.32;;;0.70;;
13731;SDS011;6937;56.096;12.664;2023-06-10T06:44:45;3.80;;;0.73;;
13731;SDS011;6937;56.096;12.664;2023-06-10T06:47:11;0.95;;;0.52;;
13731;SDS011;6937;56.096;12.664;2023-06-10T06:49:36;1.38;;;0.50;;
13731;SDS011;6937;56.096;12.664;2023-06-10T06:52:02;3.03;;;0.82;;
13731;SDS011;6937;56.096;12.664;2023-06-10T06:54:27;1.27;;;0.60;;
13731;SDS011;6937;56.096;12.664;2023-06-10T06:56:53;2.60;;;0.95;;
13731;SDS011;6937;56.096;12.664;2023-06-10T06:59:18;1.40;;;0.70;;
13731;SDS011;6937;56.096;12.664;2023-06-10T07:01:44;1.67;;;0.98;;
13731;SDS011;6937;56.096;12.664;2023-06-10T07:04:10;2.28;;;0.60;;
13731;SDS011;6937;56.096;12.664;2023-06-10T07:06:36;2.17;;;0.73;;
13731;SDS011;6937;56.096;12.664;2023-06-10T07:09:01;3.83;;;0.85;;
13731;SDS011;6937;56.096;12.664;2023-06-10T07:11:26;2.85;;;0.70;;
13731;SDS011;6937;56.096;12.664;2023-06-10T07:13:52;1.85;;;0.52;;
13731;SDS011;6937;56.096;12.664;2023-06-10T07:16:17;2.38;;;0.60;;
13731;SDS011;6937;56.096;12.664;2023-06-10T07:18:45;3.50;;;0.82;;
13731;SDS011;6937;56.096;12.664;2023-06-10T07:21:11;3.53;;;0.90;;
13731;SDS011;6937;56.096;12.664;2023-06-10T07:23:36;4.20;;;0.80;;
13731;SDS011;6937;56.096;12.664;2023-06-10T07:26:01;2.80;;;0.60;;
13731;SDS011;6937;56.096;12.664;2023-06-10T07:28:27;1.17;;;0.63;;
13731;SDS011;6937;56.096;12.664;2023-06-10T07:30:52;1.42;;;0.63;;
13731;SDS011;6937;56.096;12.664;2023-06-10T07:33:17;1.05;;;0.50;;
13731;SDS011;6937;56.096;12.664;2023-06-10T07:35:43;2.08;;;0.65;;
13731;SDS011;6937;56.096;12.664;2023-06-10T07:38:08;1.30;;;0.68;;
13731;SDS011;6937;56.096;12.664;2023-06-10T07:40:34;1.35;;;0.60;;
13731;SDS011;6937;56.096;12.664;2023-06-10T07:42:59;2.50;;;0.80;;
13731;SDS011;6937;56.096;12.664;2023-06-10T07:45:25;1.17;;;0.90;;
13731;SDS011;6937;56.096;12.664;2023-06-10T07:47:50;1.60;;;0.80;;
13731;SDS011;6937;56.096;12.664;2023-06-10T07:50:16;3.58;;;1.05;;
13731;SDS011;6937;56.096;12.664;2023-06-10T07:52:41;1.20;;;0.80;;
13731;SDS011;6937;56.096;12.664;2023-06-10T07:55:06;2.22;;;1.00;;
13731;SDS011;6937;56.096;12.664;2023-06-10T07:57:32;1.50;;;0.85;;
13731;SDS011;6937;56.096;12.664;2023-06-10T08:00:01;1.17;;;0.90;;
13731;SDS011;6937;56.096;12.664;2023-06-10T08:02:29;1.92;;;0.85;;
13731;SDS011;6937;56.096;12.664;2023-06-10T08:04:55;2.45;;;0.85;;
13731;SDS011;6937;56.096;12.664;2023-06-10T08:07:20;1.67;;;1.02;;
13731;SDS011;6937;56.096;12.664;2023-06-10T08:09:47;2.42;;;0.90;;
13731;SDS011;6937;56.096;12.664;2023-06-10T08:12:12;4.65;;;0.80;;
13731;SDS011;6937;56.096;12.664;2023-06-10T08:14:38;5.15;;;0.98;;
13731;SDS011;6937;56.096;12.664;2023-06-10T08:17:04;1.90;;;0.85;;
13731;SDS011;6937;56.096;12.664;2023-06-10T08:19:31;0.75;;;0.73;;
13731;SDS011;6937;56.096;12.664;2023-06-10T08:21:56;3.10;;;0.90;;
13731;SDS011;6937;56.096;12.664;2023-06-10T08:24:21;3.30;;;1.10;;
13731;SDS011;6937;56.096;12.664;2023-06-10T08:26:47;1.90;;;0.93;;
13731;SDS011;6937;56.096;12.664;2023-06-10T08:29:12;2.28;;;0.77;;
13731;SDS011;6937;56.096;12.664;2023-06-10T08:31:40;5.00;;;1.20;;
13731;SDS011;6937;56.096;12.664;2023-06-10T08:34:07;2.60;;;0.80;;
13731;SDS011;6937;56.096;12.664;2023-06-10T08:36:32;1.65;;;0.93;;
13731;SDS011;6937;56.096;12.664;2023-06-10T08:38:57;1.73;;;1.00;;
13731;SDS011;6937;56.096;12.664;2023-06-10T08:41:23;2.20;;;0.90;;
13731;SDS011;6937;56.096;12.664;2023-06-10T08:43:54;2.65;;;0.93;;
13731;SDS011;6937;56.096;12.664;2023-06-10T08:46:29;2.63;;;1.08;;
13731;SDS011;6937;56.096;12.664;2023-06-10T08:48:56;1.80;;;0.98;;
13731;SDS011;6937;56.096;12.664;2023-06-10T08:51:27;2.50;;;0.90;;
13731;SDS011;6937;56.096;12.664;2023-06-10T08:53:59;1.15;;;0.90;;
13731;SDS011;6937;56.096;12.664;2023-06-10T08:56:28;1.80;;;1.00;;
13731;SDS011;6937;56.096;12.664;2023-06-10T08:58:55;1.15;;;0.75;;
13731;SDS011;6937;56.096;12.664;2023-06-10T09:01:23;4.85;;;0.90;;
13731;SDS011;6937;56.096;12.664;2023-06-10T09:03:50;2.67;;;0.90;;
13731;SDS011;6937;56.096;12.664;2023-06-10T09:06:16;1.20;;;0.95;;
13731;SDS011;6937;56.096;12.664;2023-06-10T09:08:43;1.52;;;0.90;;
13731;SDS011;6937;56.096;12.664;2023-06-10T09:11:08;2.13;;;1.08;;
13731;SDS011;6937;56.096;12.664;2023-06-10T09:13:34;2.85;;;1.17;;
13731;SDS011;6937;56.096;12.664;2023-06-10T09:16:00;2.83;;;0.85;;
13731;SDS011;6937;56.096;12.664;2023-06-10T09:18:27;2.35;;;0.90;;
13731;SDS011;6937;56.096;12.664;2023-06-10T09:20:53;3.28;;;0.85;;
13731;SDS011;6937;56.096;12.664;2023-06-10T09:23:18;1.98;;;0.85;;
13731;SDS011;6937;56.096;12.664;2023-06-10T09:25:44;1.00;;;0.70;;
13731;SDS011;6937;56.096;12.664;2023-06-10T09:28:13;3.05;;;0.60;;
13731;SDS011;6937;56.096;12.664;2023-06-10T09:30:39;1.80;;;0.77;;
13731;SDS011;6937;56.096;12.664;2023-06-10T09:33:13;2.72;;;0.90;;
13731;SDS011;6937;56.096;12.664;2023-06-10T09:35:49;1.60;;;0.90;;
13731;SDS011;6937;56.096;12.664;2023-06-10T09:38:28;1.55;;;0.80;;
13731;SDS011;6937;56.096;12.664;2023-06-10T09:40:58;4.05;;;0.85;;
13731;SDS011;6937;56.096;12.664;2023-06-10T09:43:38;2.08;;;0.70;;
13731;SDS011;6937;56.096;12.664;2023-06-10T09:46:05;1.20;;;0.70;;
13731;SDS011;6937;56.096;12.664;2023-06-10T09:48:34;4.32;;;0.95;;
13731;SDS011;6937;56.096;12.664;2023-06-10T09:51:00;1.55;;;0.90;;
13731;SDS011;6937;56.096;12.664;2023-06-10T09:53:25;2.72;;;0.80;;
13731;SDS011;6937;56.096;12.664;2023-06-10T09:55:51;1.52;;;0.85;;
13731;SDS011;6937;56.096;12.664;2023-06-10T09:58:17;1.58;;;0.80;;
13731;SDS011;6937;56.096;12.664;2023-06-10T10:00:42;0.82;;;0.70;;
13731;SDS011;6937;56.096;12.664;2023-06-10T10:03:08;1.92;;;0.82;;
13731;SDS011;6937;56.096;12.664;2023-06-10T10:05:33;2.40;;;0.90;;
13731;SDS011;6937;56.096;12.664;2023-06-10T10:07:58;3.83;;;0.93;;
13731;SDS011;6937;56.096;12.664;2023-06-10T10:10:24;2.08;;;1.02;;
13731;SDS011;6937;56.096;12.664;2023-06-10T10:12:55;3.03;;;1.08;;
13731;SDS011;6937;56.096;12.664;2023-06-10T10:15:21;3.22;;;1.00;;
13731;SDS011;6937;56.096;12.664;2023-06-10T10:17:49;4.03;;;1.25;;
13731;SDS011;6937;56.096;12.664;2023-06-10T10:20:38;4.18;;;1.05;;
13731;SDS011;6937;56.096;12.664;2023-06-10T10:23:16;1.77;;;1.05;;
13731;SDS011;6937;56.096;12.664;2023-06-10T10:25:49;1.98;;;1.30;;
13731;SDS011;6937;56.096;12.664;2023-06-10T10:28:18;3.53;;;0.88;;
13731;SDS011;6937;56.096;12.664;2023-06-10T10:30:47;3.17;;;1.20;;
13731;SDS011;6937;56.096;12.664;2023-06-10T10:33:36;3.47;;;1.20;;
13731;SDS011;6937;56.096;12.664;2023-06-10T10:36:10;3.25;;;1.20;;
13731;SDS011;6937;56.096;12.664;2023-06-10T10:38:37;2.78;;;1.30;;
13731;SDS011;6937;56.096;12.664;2023-06-10T10:41:02;1.52;;;1.10;;
13731;SDS011;6937;56.096;12.664;2023-06-10T10:43:30;3.42;;;1.00;;
13731;SDS011;6937;56.096;12.664;2023-06-10T10:45:59;2.83;;;1.10;;
13731;SDS011;6937;56.096;12.664;2023-06-10T10:48:25;3.40;;;1.02;;
13731;SDS011;6937;56.096;12.664;2023-06-10T10:50:57;1.92;;;1.05;;
13731;SDS011;6937;56.096;12.664;2023-06-10T10:53:24;2.38;;;0.98;;
13731;SDS011;6937;56.096;12.664;2023-06-10T10:56:06;2.70;;;1.30;;
13731;SDS011;6937;56.096;12.664;2023-06-10T10:58:33;1.73;;;1.02;;
13731;SDS011;6937;56.096;12.664;2023-06-10T11:00:58;2.88;;;1.10;;
13731;SDS011;6937;56.096;12.664;2023-06-10T11:03:27;3.33;;;1.00;;
13731;SDS011;6937;56.096;12.664;2023-06-10T11:05:57;2.15;;;0.95;;
13731;SDS011;6937;56.096;12.664;2023-06-10T11:10:58;2.00;;;0.90;;
13731;SDS011;6937;56.096;12.664;2023-06-10T11:13:25;2.78;;;1.10;;
13731;SDS011;6937;56.096;12.664;2023-06-10T11:15:51;5.38;;;1.55;;
13731;SDS011;6937;56.096;12.664;2023-06-10T11:18:27;3.30;;;1.25;;
13731;SDS011;6937;56.096;12.664;2023-06-10T11:20:57;2.58;;;1.30;;
13731;SDS011;6937;56.096;12.664;2023-06-10T11:28:41;4.47;;;1.27;;
13731;SDS011;6937;56.096;12.664;2023-06-10T11:31:28;3.05;;;1.23;;
13731;SDS011;6937;56.096;12.664;2023-06-10T11:33:56;2.65;;;1.17;;
13731;SDS011;6937;56.096;12.664;2023-06-10T11:36:23;2.28;;;1.20;;
13731;SDS011;6937;56.096;12.664;2023-06-10T11:38:50;2.90;;;1.33;;
13731;SDS011;6937;56.096;12.664;2023-06-10T11:41:20;3.95;;;1.40;;
13731;SDS011;6937;56.096;12.664;2023-06-10T11:43:46;3.95;;;1.52;;
13731;SDS011;6937;56.096;12.664;2023-06-10T11:46:12;2.30;;;1.20;;
13731;SDS011;6937;56.096;12.664;2023-06-10T11:48:38;4.40;;;1.30;;
13731;SDS011;6937;56.096;12.664;2023-06-10T11:51:07;4.45;;;1.60;;
13731;SDS011;6937;56.096;12.664;2023-06-10T11:53:33;3.38;;;1.40;;
13731;SDS011;6937;56.096;12.664;2023-06-10T11:55:59;3.75;;;1.50;;
13731;SDS011;6937;56.096;12.664;2023-06-10T11:58:24;3.47;;;1.33;;
13731;SDS011;6937;56.096;12.664;2023-06-10T12:00:51;4.97;;;1.50;;
13731;SDS011;6937;56.096;12.664;2023-06-10T12:03:23;5.07;;;1.35;;
13731;SDS011;6937;56.096;12.664;2023-06-10T12:06:02;3.50;;;1.52;;
13731;SDS011;6937;56.096;12.664;2023-06-10T12:08:29;4.30;;;1.50;;
13731;SDS011;6937;56.096;12.664;2023-06-10T12:10:55;5.28;;;1.50;;
13731;SDS011;6937;56.096;12.664;2023-06-10T12:13:21;4.57;;;1.50;;
13731;SDS011;6937;56.096;12.664;2023-06-10T12:15:47;5.40;;;1.38;;
13731;SDS011;6937;56.096;12.664;2023-06-10T12:18:16;6.40;;;1.70;;
13731;SDS011;6937;56.096;12.664;2023-06-10T12:20:45;3.03;;;1.60;;
13731;SDS011;6937;56.096;12.664;2023-06-10T12:23:12;4.00;;;1.60;;
13731;SDS011;6937;56.096;12.664;2023-06-10T12:25:38;2.83;;;1.60;;
13731;SDS011;6937;56.096;12.664;2023-06-10T12:28:03;6.03;;;1.63;;
13731;SDS011;6937;56.096;12.664;2023-06-10T12:30:30;3.83;;;1.58;;
13731;SDS011;6937;56.096;12.664;2023-06-10T12:32:56;4.53;;;1.67;;
13731;SDS011;6937;56.096;12.664;2023-06-10T12:35:23;3.78;;;1.58;;
13731;SDS011;6937;56.096;12.664;2023-06-10T12:40:28;3.25;;;1.80;;
13731;SDS011;6937;56.096;12.664;2023-06-10T12:43:05;4.22;;;1.63;;
13731;SDS011;6937;56.096;12.664;2023-06-10T12:48:11;7.47;;;1.65;;
13731;SDS011;6937;56.096;12.664;2023-06-10T12:50:43;6.55;;;1.70;;
13731;SDS011;6937;56.096;12.664;2023-06-10T12:53:09;5.13;;;1.92;;
13731;SDS011;6937;56.096;12.664;2023-06-10T12:55:39;7.85;;;1.90;;
13731;SDS011;6937;56.096;12.664;2023-06-10T12:58:05;4.43;;;2.10;;
13731;SDS011;6937;56.096;12.664;2023-06-10T13:00:30;2.95;;;1.63;;
13731;SDS011;6937;56.096;12.664;2023-06-10T13:02:56;3.58;;;1.63;;
13731;SDS011;6937;56.096;12.664;2023-06-10T13:05:22;5.88;;;1.60;;
13731;SDS011;6937;56.096;12.664;2023-06-10T13:07:48;3.35;;;2.00;;
13731;SDS011;6937;56.096;12.664;2023-06-10T13:10:14;5.10;;;1.67;;
13731;SDS011;6937;56.096;12.664;2023-06-10T13:12:41;4.35;;;1.92;;
13731;SDS011;6937;56.096;12.664;2023-06-10T13:15:07;4.57;;;1.80;;
13731;SDS011;6937;56.096;12.664;2023-06-10T13:17:33;3.72;;;1.80;;
13731;SDS011;6937;56.096;12.664;2023-06-10T13:19:59;4.65;;;1.77;;
13731;SDS011;6937;56.096;12.664;2023-06-10T13:22:25;5.13;;;1.70;;
13731;SDS011;6937;56.096;12.664;2023-06-10T13:24:51;3.08;;;1.60;;
13731;SDS011;6937;56.096;12.664;2023-06-10T13:27:17;4.20;;;1.77;;
13731;SDS011;6937;56.096;12.664;2023-06-10T13:29:42;4.30;;;1.42;;
13731;SDS011;6937;56.096;12.664;2023-06-10T13:32:07;2.15;;;1.50;;
13731;SDS011;6937;56.096;12.664;2023-06-10T13:34:33;1.48;;;1.38;;
13731;SDS011;6937;56.096;12.664;2023-06-10T13:36:58;3.47;;;1.80;;
13731;SDS011;6937;56.096;12.664;2023-06-10T13:39:24;3.50;;;1.52;;
13731;SDS011;6937;56.096;12.664;2023-06-10T13:41:49;4.72;;;1.50;;
13731;SDS011;6937;56.096;12.664;2023-06-10T13:44:15;2.20;;;1.30;;
13731;SDS011;6937;56.096;12.664;2023-06-10T13:46:40;3.78;;;1.42;;
13731;SDS011;6937;56.096;12.664;2023-06-10T13:49:05;3.72;;;1.45;;
13731;SDS011;6937;56.096;12.664;2023-06-10T13:51:31;4.65;;;1.67;;
13731;SDS011;6937;56.096;12.664;2023-06-10T13:53:56;1.88;;;1.42;;
13731;SDS011;6937;56.096;12.664;2023-06-10T13:56:21;4.53;;;1.30;;
13731;SDS011;6937;56.096;12.664;2023-06-10T13:58:47;1.75;;;1.50;;
13731;SDS011;6937;56.096;12.664;2023-06-10T14:01:13;3.63;;;1.70;;
13731;SDS011;6937;56.096;12.664;2023-06-10T14:03:38;3.13;;;1.40;;
13731;SDS011;6937;56.096;12.664;2023-06-10T14:06:04;1.60;;;1.30;;
13731;SDS011;6937;56.096;12.664;2023-06-10T14:08:29;3.10;;;1.65;;
13731;SDS011;6937;56.096;12.664;2023-06-10T14:10:54;4.03;;;1.40;;
13731;SDS011;6937;56.096;12.664;2023-06-10T14:13:20;2.72;;;1.27;;
13731;SDS011;6937;56.096;12.664;2023-06-10T14:15:45;4.38;;;1.45;;
13731;SDS011;6937;56.096;12.664;2023-06-10T14:18:11;7.53;;;1.40;;
13731;SDS011;6937;56.096;12.664;2023-06-10T14:20:36;3.20;;;1.33;;
13731;SDS011;6937;56.096;12.664;2023-06-10T14:23:02;1.92;;;1.20;;
13731;SDS011;6937;56.096;12.664;2023-06-10T14:25:27;4.50;;;1.67;;
13731;SDS011;6937;56.096;12.664;2023-06-10T14:27:53;1.83;;;1.00;;
13731;SDS011;6937;56.096;12.664;2023-06-10T14:30:18;3.47;;;1.40;;
13731;SDS011;6937;56.096;12.664;2023-06-10T14:32:43;5.40;;;1.23;;
13731;SDS011;6937;56.096;12.664;2023-06-10T14:35:09;4.38;;;1.45;;
13731;SDS011;6937;56.096;12.664;2023-06-10T14:37:35;2.65;;;1.30;;
13731;SDS011;6937;56.096;12.664;2023-06-10T14:40:00;4.38;;;1.33;;
13731;SDS011;6937;56.096;12.664;2023-06-10T14:42:26;4.57;;;1.20;;
13731;SDS011;6937;56.096;12.664;2023-06-10T14:44:51;2.28;;;1.30;;
13731;SDS011;6937;56.096;12.664;2023-06-10T14:47:16;2.63;;;1.17;;
13731;SDS011;6937;56.096;12.664;2023-06-10T14:49:42;2.15;;;1.15;;
13731;SDS011;6937;56.096;12.664;2023-06-10T14:52:08;4.70;;;1.25;;
13731;SDS011;6937;56.096;12.664;2023-06-10T14:54:34;5.35;;;1.40;;
13731;SDS011;6937;56.096;12.664;2023-06-10T14:56:59;4.45;;;1.60;;
13731;SDS011;6937;56.096;12.664;2023-06-10T14:59:25;4.85;;;1.40;;
13731;SDS011;6937;56.096;12.664;2023-06-10T15:01:50;2.90;;;1.48;;
13731;SDS011;6937;56.096;12.664;2023-06-10T15:04:15;2.90;;;1.42;;